createdAt,value
2018-04-29T00:00:07.799Z,2.60
2018-04-29T00:02:38.264Z,2.47
2018-04-29T00:05:09.745Z,2.10
2018-04-29T00:07:40.258Z,2.43
2018-04-29T00:10:11.446Z,2.10
2018-04-29T00:12:42.720Z,2.10
2018-04-29T00:15:14.041Z,2.00
2018-04-29T00:17:44.712Z,2.20
2018-04-29T00:20:15.919Z,2.27
2018-04-29T00:22:46.312Z,2.03
2018-04-29T00:25:17.664Z,2.03
2018-04-29T00:27:48.204Z,2.00
2018-04-29T00:30:18.686Z,2.07
2018-04-29T00:32:50.022Z,2.00
2018-04-29T00:35:21.223Z,1.90
2018-04-29T00:37:52.090Z,2.07
2018-04-29T00:40:23.405Z,1.77
2018-04-29T00:42:53.675Z,1.90
2018-04-29T00:45:24.579Z,1.93
2018-04-29T00:47:55.331Z,2.20
2018-04-29T00:50:26.221Z,2.00
2018-04-29T00:52:57.043Z,2.07
2018-04-29T00:55:29.302Z,2.40
2018-04-29T00:58:00.522Z,2.17
2018-04-29T01:00:31.320Z,2.10
2018-04-29T01:03:01.626Z,2.33
2018-04-29T01:05:32.833Z,2.10
2018-04-29T01:08:04.114Z,2.10
2018-04-29T01:10:36.258Z,1.97
2018-04-29T01:13:07.164Z,2.10
2018-04-29T01:15:38.187Z,2.13
2018-04-29T01:18:09.415Z,2.20
2018-04-29T01:20:39.988Z,2.00
2018-04-29T01:23:11.436Z,2.13
2018-04-29T01:25:42.296Z,2.00
2018-04-29T01:28:13.466Z,2.10
2018-04-29T01:30:44.429Z,2.30
2018-04-29T01:33:15.287Z,2.03
2018-04-29T01:35:46.315Z,2.07
2018-04-29T01:38:16.756Z,1.90
2018-04-29T01:40:48.257Z,1.80
2018-04-29T01:43:19.520Z,2.10
2018-04-29T01:45:50.318Z,2.17
2018-04-29T01:48:20.751Z,2.17
2018-04-29T01:50:52.204Z,1.70
2018-04-29T01:53:23.787Z,1.90
2018-04-29T01:55:54.565Z,1.83
2018-04-29T01:58:24.987Z,1.93
2018-04-29T02:00:56.234Z,1.87
2018-04-29T02:03:26.850Z,2.30
2018-04-29T02:05:57.637Z,2.20
2018-04-29T02:08:28.758Z,2.00
2018-04-29T02:10:59.247Z,2.47
2018-04-29T02:13:29.932Z,2.13
2018-04-29T02:16:00.452Z,2.30
2018-04-29T02:18:31.132Z,1.97
2018-04-29T02:21:01.732Z,2.10
2018-04-29T02:23:34.102Z,2.40
2018-04-29T02:26:05.885Z,2.67
2018-04-29T02:28:36.383Z,2.17
2018-04-29T02:31:06.726Z,2.20
2018-04-29T02:33:37.924Z,2.17
2018-04-29T02:36:08.362Z,2.10
2018-04-29T02:38:39.085Z,2.10
2018-04-29T02:41:09.525Z,2.50
2018-04-29T02:43:40.124Z,2.20
2018-04-29T02:46:11.213Z,2.30
2018-04-29T02:48:43.192Z,2.17
2018-04-29T02:51:14.436Z,2.03
2018-04-29T02:53:46.122Z,2.07
2018-04-29T02:56:16.453Z,2.33
2018-04-29T02:58:46.870Z,2.00
2018-04-29T03:01:17.936Z,2.23
2018-04-29T03:03:48.467Z,2.07
2018-04-29T03:06:19.443Z,2.10
2018-04-29T03:08:50.067Z,2.27
2018-04-29T03:11:20.776Z,1.90
2018-04-29T03:13:51.573Z,2.10
2018-04-29T03:16:22.632Z,2.70
2018-04-29T03:18:52.939Z,2.20
2018-04-29T03:21:23.852Z,2.03
2018-04-29T03:23:56.085Z,2.17
2018-04-29T03:26:27.013Z,2.00
2018-04-29T03:28:57.724Z,2.03
2018-04-29T03:31:28.331Z,2.10
2018-04-29T03:34:00.793Z,2.20
2018-04-29T03:36:31.433Z,2.17
2018-04-29T03:39:02.594Z,2.40
2018-04-29T03:41:33.271Z,2.13
2018-04-29T03:44:03.702Z,2.30
2018-04-29T03:46:34.613Z,2.90
2018-04-29T03:49:05.266Z,2.10
2018-04-29T03:51:35.606Z,1.90
2018-04-29T03:54:06.917Z,2.00
2018-04-29T03:56:38.487Z,2.00
2018-04-29T04:01:20.757Z,1.93
2018-04-29T04:03:56.303Z,2.10
2018-04-29T04:06:27.951Z,2.00
2018-04-29T04:08:59.383Z,2.20
2018-04-29T04:11:30.030Z,2.20
2018-04-29T04:14:02.208Z,2.60
2018-04-29T04:16:34.097Z,2.40
2018-04-29T04:19:04.502Z,2.00
2018-04-29T04:21:35.656Z,2.37
2018-04-29T04:24:06.501Z,2.00
2018-04-29T04:26:37.529Z,2.10
2018-04-29T04:29:09.485Z,2.00
2018-04-29T04:31:40.031Z,1.73
2018-04-29T04:34:10.601Z,2.00
2018-04-29T04:36:40.888Z,2.10
2018-04-29T04:39:11.716Z,2.10
2018-04-29T04:41:42.001Z,2.23
2018-04-29T04:44:12.232Z,2.03
2018-04-29T04:46:43.057Z,2.10
2018-04-29T04:49:13.335Z,1.87
2018-04-29T04:51:43.750Z,2.00
2018-04-29T04:54:14.201Z,2.00
2018-04-29T04:56:44.668Z,2.50
2018-04-29T04:59:15.498Z,2.00
2018-04-29T05:01:45.907Z,2.10
2018-04-29T05:04:16.313Z,2.30
2018-04-29T05:06:47.200Z,1.90
2018-04-29T05:09:18.503Z,2.23
2018-04-29T05:11:48.907Z,2.30
2018-04-29T05:14:20.029Z,2.30
2018-04-29T05:16:51.255Z,2.13
2018-04-29T05:19:21.676Z,1.90
2018-04-29T05:21:51.972Z,2.30
2018-04-29T05:24:22.471Z,2.27
2018-04-29T05:26:54.202Z,2.20
2018-04-29T05:29:25.444Z,2.00
2018-04-29T05:31:56.742Z,2.13
2018-04-29T05:34:27.799Z,2.33
2018-04-29T05:36:58.403Z,2.10
2018-04-29T05:39:29.089Z,2.37
2018-04-29T05:42:00.975Z,2.20
2018-04-29T05:44:31.555Z,2.03
2018-04-29T05:47:02.855Z,1.90
2018-04-29T05:49:34.438Z,2.10
2018-04-29T05:52:06.387Z,2.20
2018-04-29T05:54:36.711Z,2.23
2018-04-29T05:57:07.182Z,2.30
2018-04-29T05:59:38.002Z,2.10
2018-04-29T06:02:08.512Z,2.67
2018-04-29T06:04:38.824Z,2.40
2018-04-29T06:07:09.546Z,2.70
2018-04-29T06:09:40.820Z,2.97
2018-04-29T06:12:11.272Z,2.73
2018-04-29T06:14:41.615Z,2.30
2018-04-29T06:17:11.835Z,2.40
2018-04-29T06:19:43.366Z,2.23
2018-04-29T06:22:13.932Z,2.40
2018-04-29T06:24:44.273Z,2.13
2018-04-29T06:27:15.736Z,2.30
2018-04-29T06:29:46.266Z,2.53
2018-04-29T06:32:16.511Z,2.80
2018-04-29T06:34:46.907Z,3.50
2018-04-29T06:37:18.259Z,3.07
2018-04-29T06:39:49.839Z,2.60
2018-04-29T06:42:20.408Z,2.37
2018-04-29T06:44:50.729Z,2.60
2018-04-29T06:47:21.449Z,2.80
2018-04-29T06:49:51.801Z,2.67
2018-04-29T06:52:22.167Z,2.70
2018-04-29T06:54:52.559Z,3.93
2018-04-29T06:57:23.742Z,2.30
2018-04-29T06:59:54.632Z,2.63
2018-04-29T07:02:25.280Z,2.80
2018-04-29T07:04:56.545Z,2.93
2018-04-29T07:07:27.267Z,2.57
2018-04-29T07:09:58.708Z,2.50
2018-04-29T07:12:30.691Z,2.73
2018-04-29T07:15:01.009Z,2.60
2018-04-29T07:17:32.216Z,2.67
2018-04-29T07:20:03.425Z,2.60
2018-04-29T07:22:33.978Z,2.50
2018-04-29T07:25:05.327Z,2.73
2018-04-29T07:27:36.176Z,2.43
2018-04-29T07:30:06.729Z,2.00
2018-04-29T07:32:37.848Z,2.67
2018-04-29T07:35:08.275Z,2.27
2018-04-29T07:37:38.546Z,2.13
2018-04-29T07:40:09.386Z,2.20
2018-04-29T07:42:40.677Z,2.47
2018-04-29T07:45:11.165Z,2.90
2018-04-29T07:47:41.628Z,2.40
2018-04-29T07:50:12.210Z,2.63
2018-04-29T07:52:43.098Z,2.50
2018-04-29T07:55:14.503Z,2.57
2018-04-29T07:57:45.344Z,2.47
2018-04-29T08:00:16.092Z,2.40
2018-04-29T08:02:46.607Z,2.10
2018-04-29T08:05:17.498Z,2.20
2018-04-29T08:07:48.673Z,2.33
2018-04-29T08:10:20.693Z,2.20
2018-04-29T08:12:51.276Z,2.50
2018-04-29T08:15:22.500Z,2.27
2018-04-29T08:17:53.796Z,2.40
2018-04-29T08:20:24.467Z,2.30
2018-04-29T08:22:55.104Z,2.13
2018-04-29T08:25:25.891Z,2.40
2018-04-29T08:27:56.875Z,2.13
2018-04-29T08:30:28.168Z,2.40
2018-04-29T08:32:58.528Z,2.60
2018-04-29T08:35:29.044Z,2.37
2018-04-29T08:38:00.003Z,2.50
2018-04-29T08:40:30.828Z,2.57
2018-04-29T08:43:01.691Z,2.10
2018-04-29T08:45:32.207Z,2.83
2018-04-29T08:48:02.966Z,3.70
2018-04-29T08:50:35.019Z,2.90
2018-04-29T08:53:05.900Z,2.83
2018-04-29T08:55:36.350Z,3.77
2018-04-29T08:58:06.983Z,2.70
2018-04-29T09:00:39.876Z,2.70
2018-04-29T09:03:10.374Z,2.67
2018-04-29T09:05:40.809Z,3.10
2018-04-29T09:08:11.857Z,2.90
2018-04-29T09:10:42.437Z,2.33
2018-04-29T09:13:13.663Z,2.70
2018-04-29T09:15:44.223Z,2.47
2018-04-29T09:18:15.453Z,2.97
2018-04-29T09:20:46.423Z,3.20
2018-04-29T09:23:16.891Z,2.80
2018-04-29T09:25:49.807Z,3.37
2018-04-29T09:28:21.277Z,3.00
2018-04-29T09:30:52.753Z,2.90
2018-04-29T09:33:23.319Z,2.47
2018-04-29T09:35:54.292Z,2.60
2018-04-29T09:38:25.564Z,2.50
2018-04-29T09:40:56.205Z,2.60
2018-04-29T09:43:26.579Z,2.40
2018-04-29T09:45:57.568Z,2.37
2018-04-29T09:48:28.535Z,3.13
2018-04-29T09:50:59.334Z,3.37
2018-04-29T09:53:30.938Z,2.53
2018-04-29T09:56:01.592Z,2.53
2018-04-29T09:58:32.099Z,2.90
2018-04-29T10:01:04.688Z,3.07
2018-04-29T10:03:35.374Z,2.70
2018-04-29T10:06:06.097Z,2.63
2018-04-29T10:08:37.116Z,3.00
2018-04-29T10:11:08.027Z,2.87
2018-04-29T10:13:39.511Z,3.20
2018-04-29T10:16:11.956Z,2.90
2018-04-29T10:18:43.555Z,3.33
2018-04-29T10:21:14.790Z,2.83
2018-04-29T10:23:46.435Z,3.33
2018-04-29T10:26:17.615Z,3.20
2018-04-29T10:28:49.056Z,3.30
2018-04-29T10:31:19.599Z,3.27
2018-04-29T10:33:52.048Z,2.90
2018-04-29T10:36:23.209Z,3.60
2018-04-29T10:38:54.044Z,2.87
2018-04-29T10:41:24.995Z,3.13
2018-04-29T10:43:56.137Z,3.00
2018-04-29T10:46:27.106Z,3.27
2018-04-29T10:48:58.696Z,3.00
2018-04-29T10:51:29.415Z,3.23
2018-04-29T10:54:01.944Z,3.20
2018-04-29T10:56:32.943Z,3.07
2018-04-29T10:59:04.284Z,3.37
2018-04-29T11:01:35.988Z,3.40
2018-04-29T11:04:06.664Z,3.37
2018-04-29T11:06:38.193Z,3.20
2018-04-29T11:09:09.804Z,3.03
2018-04-29T11:11:40.563Z,3.10
2018-04-29T11:14:12.956Z,3.07
2018-04-29T11:16:45.519Z,3.10
2018-04-29T11:19:16.904Z,3.10
2018-04-29T11:21:48.438Z,3.13
2018-04-29T11:24:19.805Z,3.07
2018-04-29T11:26:52.731Z,3.03
2018-04-29T11:29:23.168Z,3.83
2018-04-29T11:31:54.841Z,2.97
2018-04-29T11:34:26.569Z,3.13
2018-04-29T11:36:57.561Z,2.80
2018-04-29T11:39:28.107Z,3.30
2018-04-29T11:41:59.779Z,3.33
2018-04-29T11:44:30.800Z,3.40
2018-04-29T11:47:02.483Z,3.40
2018-04-29T11:49:33.943Z,3.60
2018-04-29T11:52:05.316Z,3.00
2018-04-29T11:54:36.318Z,3.20
2018-04-29T11:57:07.401Z,3.30
2018-04-29T11:59:40.708Z,4.00
2018-04-29T12:02:12.293Z,3.80
2018-04-29T12:04:44.668Z,3.90
2018-04-29T12:07:16.301Z,4.10
2018-04-29T12:09:47.923Z,3.80
2018-04-29T12:12:19.699Z,3.67
2018-04-29T12:14:50.539Z,4.43
2018-04-29T12:17:21.052Z,3.80
2018-04-29T12:19:52.523Z,4.10
2018-04-29T12:22:23.588Z,3.83
2018-04-29T12:24:55.356Z,3.90
2018-04-29T12:27:25.787Z,4.50
2018-04-29T12:29:56.511Z,4.13
2018-04-29T12:32:27.760Z,4.13
2018-04-29T12:34:59.148Z,3.73
2018-04-29T12:37:30.576Z,3.90
2018-04-29T12:40:02.142Z,3.63
2018-04-29T12:42:33.046Z,3.77
2018-04-29T12:45:04.302Z,4.10
2018-04-29T12:47:35.275Z,3.30
2018-04-29T12:50:06.246Z,3.40
2018-04-29T12:52:37.559Z,3.13
2018-04-29T12:55:10.287Z,3.53
2018-04-29T12:57:42.709Z,3.97
2018-04-29T13:00:15.797Z,3.40
2018-04-29T13:02:49.496Z,3.60
2018-04-29T13:05:22.493Z,3.03
2018-04-29T13:07:53.492Z,2.70
2018-04-29T13:10:26.665Z,3.00
2018-04-29T13:12:58.913Z,3.53
2018-04-29T13:15:35.534Z,3.13
2018-04-29T13:18:09.447Z,2.83
2018-04-29T13:20:44.435Z,3.20
2018-04-29T13:23:17.173Z,3.33
2018-04-29T13:25:51.076Z,3.50
2018-04-29T13:28:22.408Z,2.67
2018-04-29T13:30:54.166Z,3.20
2018-04-29T13:33:25.208Z,3.43
2018-04-29T13:35:58.353Z,3.43
2018-04-29T13:38:31.194Z,3.40
2018-04-29T13:41:03.450Z,3.20
2018-04-29T13:43:36.274Z,3.03
2018-04-29T13:46:11.417Z,3.10
2018-04-29T13:48:44.440Z,3.10
2018-04-29T13:51:17.383Z,4.00
2018-04-29T13:53:49.241Z,3.20
2018-04-29T13:56:20.291Z,3.23
2018-04-29T13:58:52.923Z,3.40
2018-04-29T14:01:26.359Z,3.73
2018-04-29T14:04:14.989Z,4.00
2018-04-29T14:06:47.436Z,4.37
2018-04-29T14:09:22.368Z,4.43
2018-04-29T14:11:53.500Z,3.73
2018-04-29T14:14:25.773Z,3.73
2018-04-29T14:16:57.539Z,3.33
2018-04-29T14:19:29.159Z,3.40
2018-04-29T14:22:00.373Z,3.57
2018-04-29T14:24:31.770Z,3.10
2018-04-29T14:27:03.836Z,3.30
2018-04-29T14:29:35.853Z,3.63
2018-04-29T14:32:06.782Z,3.40
2018-04-29T14:34:38.089Z,3.57
2018-04-29T14:37:11.390Z,3.40
2018-04-29T14:39:43.620Z,3.27
2018-04-29T14:42:15.223Z,3.47
2018-04-29T14:44:46.512Z,3.83
2018-04-29T14:47:17.234Z,3.07
2018-04-29T14:49:48.506Z,3.50
2018-04-29T14:52:19.340Z,3.60
2018-04-29T14:54:50.507Z,3.07
2018-04-29T14:57:21.469Z,3.60
2018-04-29T14:59:52.748Z,3.87
2018-04-29T15:02:24.016Z,3.70
2018-04-29T15:04:54.575Z,3.37
2018-04-29T15:07:26.349Z,3.40
2018-04-29T15:09:56.874Z,3.00
2018-04-29T15:12:28.575Z,3.77
2018-04-29T15:14:59.526Z,3.20
2018-04-29T15:17:31.127Z,3.13
2018-04-29T15:20:04.106Z,3.77
2018-04-29T15:22:34.872Z,3.37
2018-04-29T15:25:06.153Z,3.43
2018-04-29T15:27:37.117Z,3.50
2018-04-29T15:30:08.296Z,3.97
2018-04-29T15:32:39.760Z,4.33
2018-04-29T15:35:10.465Z,3.20
2018-04-29T15:37:41.469Z,3.10
2018-04-29T15:40:13.340Z,3.43
2018-04-29T15:42:44.023Z,3.67
2018-04-29T15:45:14.783Z,3.50
2018-04-29T15:47:46.298Z,3.60
2018-04-29T15:50:18.494Z,3.90
2018-04-29T15:52:48.873Z,3.87
2018-04-29T15:55:19.404Z,3.27
2018-04-29T15:57:49.806Z,3.13
2018-04-29T16:00:20.908Z,3.27
2018-04-29T16:02:51.346Z,3.23
2018-04-29T16:05:23.080Z,3.50
2018-04-29T16:07:55.040Z,3.53
2018-04-29T16:10:25.736Z,3.50
2018-04-29T16:12:56.443Z,4.43
2018-04-29T16:15:28.464Z,3.90
2018-04-29T16:17:59.240Z,3.50
2018-04-29T16:20:30.508Z,3.47
2018-04-29T16:23:00.914Z,4.20
2018-04-29T16:25:35.359Z,3.50
2018-04-29T16:28:07.953Z,3.53
2018-04-29T16:30:39.159Z,3.40
2018-04-29T16:33:10.580Z,3.93
2018-04-29T16:35:44.619Z,3.37
2018-04-29T16:38:16.509Z,3.30
2018-04-29T16:40:50.184Z,3.00
2018-04-29T16:43:21.150Z,3.43
2018-04-29T16:45:51.727Z,3.10
2018-04-29T16:48:23.620Z,3.33
2018-04-29T16:50:55.809Z,3.53
2018-04-29T16:53:27.542Z,3.33
2018-04-29T16:55:59.735Z,2.90
2018-04-29T16:58:31.124Z,3.30
2018-04-29T17:01:03.185Z,3.37
2018-04-29T17:03:35.366Z,3.80
2018-04-29T17:06:07.858Z,3.60
2018-04-29T17:08:38.588Z,3.27
2018-04-29T17:11:11.702Z,3.20
2018-04-29T17:13:44.998Z,3.10
2018-04-29T17:16:16.829Z,3.10
2018-04-29T17:18:49.645Z,2.83
2018-04-29T17:21:20.487Z,3.40
2018-04-29T17:23:51.594Z,3.17
2018-04-29T17:26:25.351Z,2.90
2018-04-29T17:28:56.878Z,3.00
2018-04-29T17:31:27.263Z,3.13
2018-04-29T17:33:58.645Z,3.50
2018-04-29T17:36:31.849Z,3.77
2018-04-29T17:39:03.018Z,3.57
2018-04-29T17:41:34.758Z,3.20
2018-04-29T17:44:05.653Z,3.60
2018-04-29T17:46:36.501Z,3.23
2018-04-29T17:49:08.847Z,3.30
2018-04-29T17:51:41.473Z,3.97
2018-04-29T17:54:13.205Z,3.33
2018-04-29T17:56:44.876Z,3.43
2018-04-29T17:59:15.842Z,3.33
2018-04-29T18:01:48.321Z,3.47
2018-04-29T18:04:19.641Z,3.80
2018-04-29T18:06:50.732Z,3.37
2018-04-29T18:09:22.461Z,3.50
2018-04-29T18:11:57.386Z,3.87
2018-04-29T18:14:27.852Z,3.80
2018-04-29T18:17:00.537Z,3.90
2018-04-29T18:19:33.353Z,3.80
2018-04-29T18:22:04.906Z,4.27
2018-04-29T18:24:35.392Z,4.53
2018-04-29T18:27:06.993Z,4.27
2018-04-29T18:29:37.960Z,4.20
2018-04-29T18:32:10.808Z,4.17
2018-04-29T18:34:45.485Z,5.40
2018-04-29T18:37:17.852Z,4.83
2018-04-29T18:39:51.419Z,4.80
2018-04-29T18:42:25.369Z,4.67
2018-04-29T18:45:00.666Z,4.63
2018-04-29T18:47:33.515Z,4.90
2018-04-29T18:50:06.503Z,4.23
2018-04-29T18:52:43.024Z,4.23
2018-04-29T18:55:14.341Z,5.80
2018-04-29T18:57:44.965Z,5.10
2018-04-29T19:00:15.619Z,4.57
2018-04-29T19:02:47.093Z,4.43
2018-04-29T19:05:17.829Z,4.87
2018-04-29T19:07:49.756Z,4.83
2018-04-29T19:10:21.403Z,5.30
2018-04-29T19:12:51.972Z,5.10
2018-04-29T19:15:23.915Z,5.30
2018-04-29T19:17:59.711Z,4.80
2018-04-29T19:20:31.689Z,5.27
2018-04-29T19:23:05.166Z,4.90
2018-04-29T19:25:40.051Z,5.73
2018-04-29T19:28:15.022Z,5.30
2018-04-29T19:30:46.808Z,5.13
2018-04-29T19:33:18.774Z,5.00
2018-04-29T19:35:49.219Z,4.90
2018-04-29T19:38:25.848Z,4.93
2018-04-29T19:40:58.872Z,5.67
2018-04-29T19:43:29.732Z,5.63
2018-04-29T19:46:03.212Z,5.30
2018-04-29T19:48:34.868Z,5.83
2018-04-29T19:51:08.813Z,5.40
2018-04-29T19:53:39.426Z,4.97
2018-04-29T19:56:10.317Z,4.87
2018-04-29T19:58:41.778Z,4.97
2018-04-29T20:01:12.765Z,4.63
2018-04-29T20:03:44.691Z,5.07
2018-04-29T20:06:16.872Z,5.10
2018-04-29T20:08:48.355Z,5.00
2018-04-29T20:11:19.551Z,4.80
2018-04-29T20:13:52.928Z,5.00
2018-04-29T20:16:26.025Z,5.57
2018-04-29T20:18:59.301Z,5.03
2018-04-29T20:21:30.302Z,4.80
2018-04-29T20:24:02.065Z,5.03
2018-04-29T20:26:35.554Z,4.70
2018-04-29T20:29:08.789Z,4.67
2018-04-29T20:31:39.334Z,5.10
2018-04-29T20:34:10.841Z,5.33
2018-04-29T20:36:41.848Z,4.77
2018-04-29T20:39:12.496Z,5.40
2018-04-29T20:41:43.133Z,6.07
2018-04-29T20:44:14.774Z,6.73
2018-04-29T20:46:45.375Z,6.23
2018-04-29T20:49:17.418Z,6.07
2018-04-29T20:51:48.284Z,5.50
2018-04-29T20:54:20.132Z,5.40
2018-04-29T20:56:51.012Z,5.33
2018-04-29T20:59:22.282Z,6.23
2018-04-29T21:01:53.031Z,6.10
2018-04-29T21:04:25.144Z,5.63
2018-04-29T21:06:57.196Z,6.00
2018-04-29T21:09:28.806Z,6.13
2018-04-29T21:12:00.362Z,7.33
2018-04-29T21:14:30.999Z,5.97
2018-04-29T21:17:01.412Z,6.60
2018-04-29T21:19:32.025Z,7.53
2018-04-29T21:22:03.056Z,6.80
2018-04-29T21:24:33.774Z,7.07
2018-04-29T21:27:04.962Z,7.00
2018-04-29T21:29:38.039Z,7.53
2018-04-29T21:32:08.382Z,8.13
2018-04-29T21:34:40.620Z,7.63
2018-04-29T21:37:11.691Z,7.23
2018-04-29T21:39:42.051Z,7.27
2018-04-29T21:42:13.574Z,8.57
2018-04-29T21:44:43.943Z,9.10
2018-04-29T21:47:16.220Z,8.17
2018-04-29T21:49:47.841Z,8.30
2018-04-29T21:52:18.348Z,11.23
2018-04-29T21:54:48.847Z,13.03
2018-04-29T21:57:19.666Z,15.70
2018-04-29T21:59:50.891Z,16.50
2018-04-29T22:02:22.848Z,17.83
2018-04-29T22:04:53.931Z,19.23
2018-04-29T22:07:25.519Z,22.37
2018-04-29T22:09:56.652Z,21.67
2018-04-29T22:12:27.264Z,16.13
2018-04-29T22:14:59.735Z,10.33
2018-04-29T22:17:30.583Z,9.10
2018-04-29T22:20:01.247Z,6.77
2018-04-29T22:22:32.991Z,5.37
2018-04-29T22:25:04.742Z,3.60
2018-04-29T22:27:35.243Z,3.93
2018-04-29T22:30:06.124Z,3.63
2018-04-29T22:32:36.532Z,3.07
2018-04-29T22:35:07.226Z,3.20
2018-04-29T22:37:39.315Z,2.40
2018-04-29T22:40:09.919Z,2.40
2018-04-29T22:42:41.636Z,3.07
2018-04-29T22:45:12.471Z,3.17
2018-04-29T22:47:42.923Z,3.60
2018-04-29T22:50:13.416Z,3.00
2018-04-29T22:52:45.390Z,3.23
2018-04-29T22:55:15.659Z,3.27
2018-04-29T22:57:47.081Z,2.50
2018-04-29T23:00:17.726Z,2.70
2018-04-29T23:02:48.967Z,2.97
2018-04-29T23:05:19.836Z,2.30
2018-04-29T23:07:50.395Z,2.70
2018-04-29T23:10:20.834Z,2.50
2018-04-29T23:12:51.699Z,2.90
2018-04-29T23:15:22.413Z,2.90
2018-04-29T23:17:52.740Z,2.60
2018-04-29T23:20:23.227Z,3.13
2018-04-29T23:22:53.696Z,2.83
2018-04-29T23:25:24.536Z,2.97
2018-04-29T23:27:54.921Z,2.37
2018-04-29T23:30:25.411Z,2.30
2018-04-29T23:32:57.639Z,2.60
2018-04-29T23:35:28.478Z,2.73
2018-04-29T23:37:59.802Z,2.60
2018-04-29T23:40:30.061Z,2.80
2018-04-29T23:43:00.363Z,2.93
2018-04-29T23:45:31.625Z,2.80
2018-04-29T23:48:02.190Z,2.90
2018-04-29T23:50:33.484Z,3.00
2018-04-29T23:53:05.295Z,2.67
2018-04-29T23:55:36.615Z,3.07
2018-04-29T23:58:07.170Z,4.00
